Time;durP1;ratioP1;P1;durP2;ratioP2;P2;SDS_P1;SDS_P2;PMS_P1;PMS_P2;Temp;Humidity;BMP_temperature;BMP_pressure;BME280_temperature;BME280_humidity;BME280_pressure;Samples;Min_cycle;Max_cycle;Signal;HPM_P1;HPM_P2
2023/05/11 00:00:07;;;;;;;5.85;5.30;;;;;;;10.92;56.79;95109.69;5027826;28;20225;-67
2023/05/11 00:02:32;;;;;;;5.35;4.95;;;;;;;11.06;56.39;95110.13;5025398;28;20267;-68
2023/05/11 00:04:58;;;;;;;7.90;5.07;;;;;;;10.90;56.56;95116.06;5026165;28;20220;-66
2023/05/11 00:07:23;;;;;;;5.47;4.90;;;;;;;10.84;57.16;95106.16;5026952;28;20193;-66
2023/05/11 00:09:49;;;;;;;6.43;4.83;;;;;;;10.95;56.42;95122.53;5024243;28;20222;-67
2023/05/11 00:12:15;;;;;;;5.65;5.05;;;;;;;10.83;56.66;95105.34;5024871;28;20217;-68
2023/05/11 00:14:40;;;;;;;7.05;5.72;;;;;;;10.93;56.65;95116.63;5024166;28;20344;-67
2023/05/11 00:17:06;;;;;;;6.67;5.17;;;;;;;10.92;56.71;95120.19;5023824;28;20223;-67
2023/05/11 00:19:31;;;;;;;7.23;5.13;;;;;;;10.85;56.77;95108.63;5021440;28;20189;-67
2023/05/11 00:21:57;;;;;;;6.07;5.47;;;;;;;10.84;56.99;95122.75;5024420;28;20547;-66
2023/05/11 00:24:24;;;;;;;6.80;5.20;;;;;;;10.91;56.57;95121.19;5020216;28;20229;-67
2023/05/11 00:26:49;;;;;;;6.38;5.78;;;;;;;10.89;56.94;95123.13;5024923;28;20796;-66
2023/05/11 00:29:15;;;;;;;6.20;5.60;;;;;;;10.86;56.79;95120.81;5027869;28;20228;-67
2023/05/11 00:31:40;;;;;;;5.93;5.53;;;;;;;10.92;56.68;95122.84;5035207;28;20226;-67
2023/05/11 00:34:06;;;;;;;8.27;5.60;;;;;;;10.91;56.67;95123.00;5017337;28;20222;-67
2023/05/11 00:36:32;;;;;;;6.07;5.47;;;;;;;10.96;56.41;95120.72;5028402;28;20221;-66
2023/05/11 00:38:58;;;;;;;6.13;5.63;;;;;;;10.99;56.30;95118.63;5024545;28;20218;-66
2023/05/11 00:41:23;;;;;;;5.70;5.22;;;;;;;10.90;56.68;95123.97;5027660;28;20237;-67
2023/05/11 00:43:49;;;;;;;6.10;5.50;;;;;;;10.84;56.97;95121.94;5020568;28;20209;-67
2023/05/11 00:46:14;;;;;;;5.82;5.30;;;;;;;10.85;56.98;95124.41;5024186;28;20185;-67
2023/05/11 00:48:40;;;;;;;6.00;5.40;;;;;;;10.70;57.26;95118.88;5024773;28;20235;-67
2023/05/11 00:51:05;;;;;;;6.20;5.60;;;;;;;10.80;57.37;95129.31;5043612;28;20228;-68
2023/05/11 00:53:31;;;;;;;5.77;5.27;;;;;;;10.82;57.05;95125.56;5020861;28;20280;-66
2023/05/11 00:55:57;;;;;;;5.67;5.17;;;;;;;10.86;57.06;95117.38;5024920;28;20280;-67
2023/05/11 00:58:24;;;;;;;6.70;6.00;;;;;;;10.82;57.28;95120.31;5027977;28;20184;-67
2023/05/11 01:00:50;;;;;;;6.37;5.87;;;;;;;10.77;57.22;95122.56;5027475;28;20224;-67
2023/05/11 01:03:16;;;;;;;5.97;5.40;;;;;;;10.72;57.41;95123.94;5024956;28;20233;-67
2023/05/11 01:06:04;;;;;;;6.57;5.97;;;;;;;10.72;57.30;95129.22;5022265;28;20218;-67
2023/05/11 01:08:47;;;;;;;5.97;5.47;;;;;;;10.54;57.88;95127.41;5027521;28;20311;-67
2023/05/11 01:11:48;;;;;;;6.20;5.67;;;;;;;10.37;58.36;95122.94;5028852;28;20224;-67
2023/05/11 01:14:22;;;;;;;5.77;5.30;;;;;;;10.47;58.16;95126.34;4982239;28;20233;-67
2023/05/11 01:16:58;;;;;;;7.33;5.40;;;;;;;10.45;58.14;95125.69;4962466;28;20200;-68
2023/05/11 01:19:47;;;;;;;6.37;5.80;;;;;;;10.28;58.53;95127.28;4968936;28;20203;-68
2023/05/11 01:22:31;;;;;;;5.90;5.37;;;;;;;10.35;58.26;95124.91;4968900;28;20235;-67
2023/05/11 01:25:05;;;;;;;6.50;5.90;;;;;;;10.28;58.45;95122.03;4970058;28;20238;-67
2023/05/11 01:27:42;;;;;;;6.90;5.37;;;;;;;10.41;58.35;95126.13;4967481;28;20215;-69
2023/05/11 01:30:25;;;;;;;6.90;6.40;;;;;;;10.50;57.94;95128.66;4982461;28;20226;-69
2023/05/11 01:32:54;;;;;;;6.00;5.47;;;;;;;10.53;58.01;95128.41;4964598;28;20221;-69
2023/05/11 01:35:23;;;;;;;7.27;6.20;;;;;;;10.50;57.90;95131.31;4970485;28;20227;-69
2023/05/11 01:37:53;;;;;;;7.07;6.43;;;;;;;10.37;58.22;95126.41;4964064;28;20196;-66
2023/05/11 01:40:23;;;;;;;7.27;6.63;;;;;;;10.40;57.92;95120.03;4980601;28;20179;-68
2023/05/11 01:43:00;;;;;;;7.13;6.43;;;;;;;10.31;58.31;95129.63;4981185;28;20228;-68
2023/05/11 01:45:28;;;;;;;7.63;6.93;;;;;;;10.28;58.15;95131.72;4967697;28;20618;-68
2023/05/11 01:47:56;;;;;;;7.83;7.07;;;;;;;10.31;58.31;95126.16;4970943;28;20230;-68
2023/05/11 01:50:24;;;;;;;6.73;6.23;;;;;;;10.26;58.06;95129.19;4971123;28;20326;-67
2023/05/11 01:52:51;;;;;;;6.70;6.20;;;;;;;10.27;57.97;95124.78;5028051;28;20181;-67
2023/05/11 01:55:20;;;;;;;7.33;6.73;;;;;;;10.32;57.68;95127.84;5023002;28;20288;-68
2023/05/11 01:57:50;;;;;;;7.90;7.03;;;;;;;10.30;57.70;95127.97;5025304;28;20217;-68
2023/05/11 02:00:17;;;;;;;7.50;6.83;;;;;;;10.34;57.46;95125.88;5021277;28;20268;-68
2023/05/11 02:02:46;;;;;;;8.00;7.20;;;;;;;10.18;57.83;95126.47;5028198;28;20233;-68
2023/05/11 02:05:18;;;;;;;7.13;6.53;;;;;;;10.23;57.54;95131.31;5032551;28;20226;-67
2023/05/11 02:07:45;;;;;;;7.00;6.40;;;;;;;10.25;57.36;95132.81;5028008;28;20565;-67
2023/05/11 02:10:13;;;;;;;7.03;6.40;;;;;;;10.25;57.27;95132.81;5027653;28;20201;-68
2023/05/11 02:12:41;;;;;;;7.00;6.37;;;;;;;10.26;57.19;95116.06;5026571;28;20218;-68
2023/05/11 02:15:08;;;;;;;7.30;6.57;;;;;;;10.33;57.19;95125.06;5027107;28;20226;-68
2023/05/11 02:17:35;;;;;;;6.30;5.80;;;;;;;10.38;56.94;95127.25;5029286;28;20716;-67
2023/05/11 02:20:03;;;;;;;6.57;5.97;;;;;;;10.33;56.72;95125.06;5027500;28;20182;-68
2023/05/11 02:22:29;;;;;;;7.03;6.33;;;;;;;10.34;56.54;95115.34;5027980;28;20292;-69
2023/05/11 02:24:55;;;;;;;6.27;5.70;;;;;;;10.33;56.38;95118.97;5037498;28;20217;-68
2023/05/11 02:27:21;;;;;;;6.77;6.20;;;;;;;10.36;56.39;95113.41;5023198;28;20221;-67
2023/05/11 02:29:47;;;;;;;6.57;5.90;;;;;;;10.45;55.97;95124.84;5028367;28;20222;-68
2023/05/11 02:32:17;;;;;;;7.03;6.43;;;;;;;10.35;56.35;95120.47;5028972;28;20257;-68
2023/05/11 02:34:55;;;;;;;6.80;6.07;;;;;;;10.33;55.81;95113.72;5029290;28;20279;-68
2023/05/11 02:37:24;;;;;;;6.20;5.70;;;;;;;10.23;56.19;95118.16;5021697;28;20272;-68
2023/05/11 02:39:59;;;;;;;6.37;5.40;;;;;;;10.16;56.26;95108.25;5029044;28;20225;-67
2023/05/11 02:42:27;;;;;;;5.83;5.33;;;;;;;10.01;56.68;95117.59;5021872;28;20264;-67
2023/05/11 02:45:14;;;;;;;5.77;5.13;;;;;;;9.98;57.08;95120.50;5029916;28;20236;-69
2023/05/11 02:47:51;;;;;;;5.97;5.40;;;;;;;10.00;57.11;95121.19;5019118;28;20320;-67
2023/05/11 02:50:18;;;;;;;6.43;5.63;;;;;;;10.05;56.75;95121.59;5022377;28;20265;-68
2023/05/11 02:52:48;;;;;;;7.17;5.37;;;;;;;10.06;56.39;95122.41;5029606;28;20185;-67
2023/05/11 02:55:16;;;;;;;5.57;5.07;;;;;;;10.07;57.08;95116.19;5031524;28;20280;-67
2023/05/11 02:57:43;;;;;;;6.67;5.87;;;;;;;10.05;56.61;95118.13;5023833;28;20281;-67
2023/05/11 03:00:09;;;;;;;6.87;5.60;;;;;;;9.96;57.04;95111.94;5026957;28;20213;-67
2023/05/11 03:02:35;;;;;;;6.33;5.77;;;;;;;10.04;56.85;95114.66;5027918;28;20217;-67
2023/05/11 03:05:00;;;;;;;8.07;6.13;;;;;;;9.99;56.88;95111.66;5025965;28;20329;-67
2023/05/11 03:07:26;;;;;;;6.60;6.10;;;;;;;10.15;56.51;95113.63;5022830;28;20189;-67
2023/05/11 03:09:52;;;;;;;6.37;5.77;;;;;;;10.18;56.23;95109.91;5034463;28;20221;-67
2023/05/11 03:12:17;;;;;;;5.97;5.47;;;;;;;10.08;56.54;95107.34;5027227;28;20260;-67
2023/05/11 03:14:44;;;;;;;6.73;5.97;;;;;;;10.09;56.76;95103.72;5027753;28;20333;-67
2023/05/11 03:17:11;;;;;;;6.10;5.60;;;;;;;10.08;56.39;95110.78;5025321;28;20224;-66
2023/05/11 03:19:38;;;;;;;6.90;6.27;;;;;;;9.98;56.86;95117.88;5023272;28;21532;-67
2023/05/11 03:22:03;;;;;;;6.50;5.90;;;;;;;10.06;56.98;95111.91;5027640;28;20262;-67
2023/05/11 03:24:30;;;;;;;7.00;6.40;;;;;;;10.05;57.09;95118.13;5031698;28;20218;-70
2023/05/11 03:26:57;;;;;;;7.40;6.43;;;;;;;10.02;57.19;95115.78;5025184;28;20222;-66
2023/05/11 03:29:26;;;;;;;7.07;6.37;;;;;;;9.99;57.24;95116.06;5029443;28;20212;-65
2023/05/11 03:31:52;;;;;;;6.70;6.20;;;;;;;9.96;57.42;95109.31;5029714;28;20276;-65
2023/05/11 03:34:18;;;;;;;8.80;6.20;;;;;;;9.93;57.56;95114.88;5028891;28;20685;-67
2023/05/11 03:36:47;;;;;;;6.77;6.13;;;;;;;10.03;57.34;95123.53;5022542;28;20232;-68
2023/05/11 03:39:15;;;;;;;7.20;6.57;;;;;;;10.03;57.50;95112.19;5027865;28;20430;-70
2023/05/11 03:41:43;;;;;;;6.90;6.30;;;;;;;10.22;56.87;95122.59;5022867;28;20238;-68
2023/05/11 03:44:10;;;;;;;6.43;5.83;;;;;;;10.22;56.75;95121.78;5023288;28;20229;-66
2023/05/11 03:46:38;;;;;;;7.20;6.57;;;;;;;10.16;56.75;95123.19;5031144;28;20325;-71
2023/05/11 03:49:05;;;;;;;6.30;5.80;;;;;;;10.09;56.70;95128.19;5028970;28;20308;-67
2023/05/11 03:51:33;;;;;;;7.30;6.70;;;;;;;10.19;56.38;95129.97;5022206;28;20263;-68
2023/05/11 03:53:58;;;;;;;7.60;6.27;;;;;;;10.27;56.53;95135.31;5023100;28;20264;-67
2023/05/11 03:56:24;;;;;;;7.23;6.53;;;;;;;10.28;56.25;95129.91;5021806;28;20274;-69
2023/05/11 03:58:49;;;;;;;7.07;6.37;;;;;;;10.29;56.16;95139.47;5026605;28;20479;-67
2023/05/11 04:01:15;;;;;;;7.17;6.60;;;;;;;10.31;56.40;95136.69;5025650;28;20221;-67
2023/05/11 04:03:48;;;;;;;7.73;6.57;;;;;;;10.30;56.41;95132.41;5023139;28;20238;-69
2023/05/11 04:06:15;;;;;;;8.57;7.23;;;;;;;10.29;56.80;95142.09;5024537;28;20364;-69
2023/05/11 04:08:40;;;;;;;8.00;7.30;;;;;;;10.27;56.88;95136.16;5027779;28;20290;-67
2023/05/11 04:11:06;;;;;;;8.43;7.67;;;;;;;10.31;56.57;95136.69;5006656;28;20316;-71
2023/05/11 04:13:31;;;;;;;9.27;7.93;;;;;;;10.29;56.79;95134.22;5025389;28;20185;-69
2023/05/11 04:15:57;;;;;;;9.03;8.23;;;;;;;10.33;56.92;95140.81;5025087;28;20226;-69
2023/05/11 04:18:22;;;;;;;8.93;8.03;;;;;;;10.27;56.90;95135.31;5019424;28;20214;-69
2023/05/11 04:20:47;;;;;;;8.73;7.97;;;;;;;10.28;57.15;95135.19;5023179;28;20217;-68
2023/05/11 04:23:14;;;;;;;9.53;8.57;;;;;;;10.42;56.99;95144.34;5026825;28;20218;-68
2023/05/11 04:25:39;;;;;;;9.53;8.57;;;;;;;10.41;56.96;95140.09;5029464;28;20221;-70
2023/05/11 04:28:05;;;;;;;9.43;8.53;;;;;;;10.49;56.94;95148.06;5022171;28;20341;-68
2023/05/11 04:30:30;;;;;;;11.73;8.87;;;;;;;10.29;57.33;95147.38;5017677;28;20221;-67
2023/05/11 04:32:56;;;;;;;9.90;9.00;;;;;;;10.30;57.39;95143.75;5010375;28;20222;-71
2023/05/11 04:35:22;;;;;;;10.90;9.83;;;;;;;10.48;57.10;95161.38;5023956;28;20230;-65
2023/05/11 04:37:47;;;;;;;11.23;9.40;;;;;;;10.49;57.35;95157.75;5026581;28;20189;-67
2023/05/11 04:40:13;;;;;;;10.43;9.20;;;;;;;10.40;57.26;95154.22;5031108;28;20193;-67
2023/05/11 04:42:38;;;;;;;11.63;10.43;;;;;;;10.41;57.31;95152.41;5022526;28;20245;-67
2023/05/11 04:45:04;;;;;;;11.17;10.10;;;;;;;10.30;57.72;95153.44;5030264;28;20246;-67
2023/05/11 04:47:30;;;;;;;10.87;9.77;;;;;;;10.35;57.62;95154.66;5019332;28;20224;-68
2023/05/11 04:49:55;;;;;;;11.27;10.20;;;;;;;10.33;57.86;95153.97;5028987;28;20189;-71
2023/05/11 04:52:21;;;;;;;11.60;10.50;;;;;;;10.37;57.73;95157.97;5032173;28;20186;-66
2023/05/11 04:54:46;;;;;;;12.40;11.13;;;;;;;10.35;58.03;95164.34;5030442;28;20226;-67
2023/05/11 04:57:11;;;;;;;12.63;11.03;;;;;;;10.13;58.42;95158.47;5031104;28;20232;-65
2023/05/11 04:59:37;;;;;;;11.70;10.57;;;;;;;10.15;58.84;95168.81;5027416;28;20226;-67
2023/05/11 05:02:03;;;;;;;12.93;11.57;;;;;;;10.17;58.56;95169.50;5031026;28;20229;-66
2023/05/11 05:04:28;;;;;;;10.43;9.53;;;;;;;10.18;58.85;95163.28;5033139;28;20237;-65
2023/05/11 05:06:53;;;;;;;13.30;11.97;;;;;;;10.15;58.54;95159.13;5032984;28;20225;-66
2023/05/11 05:09:19;;;;;;;13.00;11.87;;;;;;;10.28;58.40;95168.53;5031234;28;20274;-67
2023/05/11 05:11:45;;;;;;;12.40;11.20;;;;;;;10.24;58.45;95162.72;5038967;28;20229;-67
2023/05/11 05:14:10;;;;;;;12.40;11.30;;;;;;;10.38;58.20;95167.50;5033756;28;20225;-66
2023/05/11 05:16:35;;;;;;;12.10;11.00;;;;;;;10.29;58.41;95175.41;5028005;28;20193;-67
2023/05/11 05:19:01;;;;;;;11.88;10.88;;;;;;;10.32;58.29;95172.53;5030837;28;20225;-67
2023/05/11 05:21:26;;;;;;;12.63;11.48;;;;;;;10.45;58.06;95177.41;5025259;28;20229;-64
2023/05/11 05:23:52;;;;;;;14.57;13.18;;;;;;;10.39;58.45;95178.84;5014653;28;20341;-66
2023/05/11 05:26:17;;;;;;;13.83;12.40;;;;;;;10.32;58.61;95178.59;5034106;28;20228;-65
2023/05/11 05:28:43;;;;;;;13.47;12.37;;;;;;;10.30;58.92;95180.53;5026785;28;20320;-66
2023/05/11 05:31:08;;;;;;;14.37;12.90;;;;;;;10.22;59.56;95188.28;5031151;28;20292;-66
2023/05/11 05:33:34;;;;;;;18.38;13.75;;;;;;;10.10;60.59;95195.56;5020198;28;20225;-65
2023/05/11 05:35:59;;;;;;;13.73;12.53;;;;;;;10.06;60.62;95186.28;5027434;28;20228;-63
2023/05/11 05:38:25;;;;;;;13.87;12.57;;;;;;;10.25;59.62;95184.56;5034817;28;20240;-63
2023/05/11 05:40:50;;;;;;;15.87;14.43;;;;;;;10.21;60.01;95183.16;5031614;28;20217;-63
2023/05/11 05:43:16;;;;;;;13.87;12.70;;;;;;;10.38;59.44;95191.16;5027572;28;20243;-63
2023/05/11 05:45:41;;;;;;;13.70;12.60;;;;;;;10.24;59.75;95199.50;5023936;28;20237;-63
2023/05/11 05:48:08;;;;;;;14.83;13.47;;;;;;;9.93;60.83;95196.28;5026403;28;20218;-63
2023/05/11 05:50:33;;;;;;;15.33;13.23;;;;;;;10.09;60.59;95198.31;5029367;28;20298;-63
2023/05/11 05:52:59;;;;;;;14.13;12.65;;;;;;;10.22;59.53;95185.66;5022549;28;20269;-63
2023/05/11 05:55:25;;;;;;;16.07;13.87;;;;;;;10.24;59.68;95198.69;5021479;28;20185;-63
2023/05/11 05:57:50;;;;;;;14.70;13.35;;;;;;;10.34;59.24;95187.19;5026042;28;20225;-63
2023/05/11 06:00:16;;;;;;;15.40;13.80;;;;;;;10.50;58.75;95194.41;5027973;28;20308;-63
2023/05/11 06:02:41;;;;;;;15.17;13.70;;;;;;;10.47;58.93;95199.94;5018042;28;20229;-63
2023/05/11 06:05:07;;;;;;;12.70;11.50;;;;;;;10.41;58.53;95195.28;5030042;28;20222;-64
2023/05/11 06:07:33;;;;;;;13.63;12.43;;;;;;;10.36;58.51;95192.28;5023950;28;20219;-64
2023/05/11 06:09:58;;;;;;;12.93;11.67;;;;;;;10.37;58.23;95197.41;5029859;28;20228;-64
2023/05/11 06:12:24;;;;;;;13.37;12.07;;;;;;;10.17;59.09;95203.66;5023689;28;20209;-64
2023/05/11 06:14:49;;;;;;;13.00;11.97;;;;;;;10.27;58.59;95203.63;5024364;28;20214;-63
2023/05/11 06:17:15;;;;;;;13.73;12.27;;;;;;;10.40;58.12;95204.16;5037208;28;20230;-64
2023/05/11 06:19:41;;;;;;;13.47;12.23;;;;;;;10.30;58.10;95212.09;5027425;28;20209;-63
2023/05/11 06:22:07;;;;;;;13.80;12.30;;;;;;;10.44;58.13;95215.19;5027913;28;20222;-64
2023/05/11 06:24:32;;;;;;;13.80;12.63;;;;;;;10.43;58.29;95213.56;5019656;28;20224;-64
2023/05/11 06:26:57;;;;;;;13.97;12.73;;;;;;;10.41;58.18;95213.69;5028735;28;20331;-62
2023/05/11 06:29:23;;;;;;;13.13;12.00;;;;;;;10.56;57.88;95224.56;5028707;28;20217;-63
2023/05/11 06:31:51;;;;;;;14.00;12.80;;;;;;;10.41;58.12;95218.13;5030793;28;20186;-62
2023/05/11 06:34:20;;;;;;;13.70;12.60;;;;;;;10.43;58.28;95218.81;5030290;28;20236;-66
2023/05/11 06:36:47;;;;;;;14.80;13.30;;;;;;;10.54;58.14;95223.88;5030252;28;20240;-65
2023/05/11 06:39:12;;;;;;;14.30;12.90;;;;;;;10.53;58.12;95230.94;5029177;28;20218;-63
2023/05/11 06:41:37;;;;;;;15.73;12.43;;;;;;;10.48;58.17;95227.91;5023486;28;20264;-66
2023/05/11 06:44:04;;;;;;;14.13;12.93;;;;;;;10.24;58.85;95227.59;5031870;28;20237;-65
2023/05/11 06:46:30;;;;;;;13.47;12.27;;;;;;;10.16;59.19;95238.81;5015173;28;20189;-67
2023/05/11 06:48:55;;;;;;;15.07;13.07;;;;;;;10.24;59.17;95230.22;5027359;28;20229;-66
2023/05/11 06:51:21;;;;;;;15.43;13.83;;;;;;;10.34;58.98;95236.25;5029137;28;20213;-66
2023/05/11 06:53:47;;;;;;;14.20;13.00;;;;;;;10.29;59.18;95233.25;5021898;28;20225;-66
2023/05/11 06:56:12;;;;;;;16.03;13.93;;;;;;;10.36;59.06;95235.16;5027405;28;20240;-63
2023/05/11 06:58:38;;;;;;;16.03;14.47;;;;;;;10.36;58.64;95237.78;5025951;28;20292;-64
2023/05/11 07:01:06;;;;;;;14.77;13.37;;;;;;;10.53;58.22;95224.81;5031745;28;20225;-64
2023/05/11 07:03:35;;;;;;;14.47;13.23;;;;;;;10.79;57.63;95228.41;5020456;28;20267;-65
2023/05/11 07:06:00;;;;;;;13.97;12.63;;;;;;;10.96;57.02;95224.19;5030676;28;20304;-63
2023/05/11 07:08:26;;;;;;;15.63;13.90;;;;;;;10.68;57.51;95231.25;5029449;28;20313;-63
2023/05/11 07:10:52;;;;;;;16.13;14.63;;;;;;;10.54;58.26;95222.06;5026813;28;20283;-64
2023/05/11 07:13:18;;;;;;;15.60;13.97;;;;;;;10.49;58.13;95223.47;5028173;28;20210;-67
2023/05/11 07:15:43;;;;;;;14.47;13.27;;;;;;;10.63;57.53;95228.25;5028201;28;20313;-66
2023/05/11 07:18:09;;;;;;;12.83;11.67;;;;;;;10.89;56.38;95225.75;5029859;28;20224;-62
2023/05/11 07:20:35;;;;;;;13.07;11.87;;;;;;;10.91;56.48;95229.06;5032518;28;20224;-65
2023/05/11 07:23:02;;;;;;;13.40;12.00;;;;;;;10.97;56.22;95231.09;5033674;28;20271;-64
2023/05/11 07:25:28;;;;;;;12.18;10.85;;;;;;;11.20;55.58;95222.75;5022912;28;20244;-66
2023/05/11 07:27:53;;;;;;;12.68;11.57;;;;;;;11.39;54.98;95227.88;5025433;28;20218;-62
2023/05/11 07:30:19;;;;;;;11.90;10.75;;;;;;;11.47;54.33;95227.94;5029329;28;20224;-66
2023/05/11 07:32:44;;;;;;;12.00;10.35;;;;;;;11.66;53.50;95219.03;5028383;28;20222;-65
2023/05/11 07:35:10;;;;;;;11.30;10.20;;;;;;;11.57;53.63;95240.19;5027478;28;20244;-64
2023/05/11 07:37:35;;;;;;;10.88;9.77;;;;;;;11.86;53.27;95232.03;5031229;28;20186;-65
2023/05/11 07:40:01;;;;;;;11.33;10.43;;;;;;;11.77;53.32;95228.50;5029871;28;20217;-65
2023/05/11 07:42:26;;;;;;;11.57;10.48;;;;;;;11.93;52.97;95227.00;5012564;28;20249;-64
2023/05/11 07:44:51;;;;;;;11.40;10.30;;;;;;;12.05;52.56;95233.63;5027878;28;20229;-64
2023/05/11 07:47:19;;;;;;;10.35;9.55;;;;;;;12.08;52.03;95231.53;5031858;28;20228;-66
2023/05/11 07:49:46;;;;;;;10.25;9.32;;;;;;;12.19;51.44;95234.88;5033396;28;20193;-68
2023/05/11 07:52:12;;;;;;;10.82;9.82;;;;;;;12.16;51.94;95222.00;5031076;28;20189;-67
2023/05/11 07:54:38;;;;;;;13.25;9.80;;;;;;;12.15;51.48;95229.09;5023590;28;20225;-69
2023/05/11 07:57:04;;;;;;;10.73;9.80;;;;;;;12.44;51.11;95227.94;5041568;28;20232;-70
2023/05/11 07:59:30;;;;;;;11.85;10.43;;;;;;;12.66;50.85;95229.16;5041993;28;20217;-67
2023/05/11 08:01:56;;;;;;;10.32;9.18;;;;;;;12.91;50.12;95235.34;5010279;28;20202;-67
2023/05/11 08:04:21;;;;;;;9.50;8.60;;;;;;;12.90;48.86;95225.78;5023924;28;20290;-67
2023/05/11 08:06:47;;;;;;;10.52;9.43;;;;;;;12.78;49.06;95226.09;5043175;28;20272;-63
2023/05/11 08:09:14;;;;;;;8.82;8.07;;;;;;;12.69;48.70;95231.47;5023229;28;20229;-66
2023/05/11 08:11:39;;;;;;;8.32;7.63;;;;;;;12.88;47.87;95225.94;5021707;28;20260;-66
2023/05/11 08:14:05;;;;;;;10.10;8.23;;;;;;;12.91;48.57;95230.06;5027732;28;20245;-66
2023/05/11 08:16:30;;;;;;;7.50;6.85;;;;;;;13.03;48.12;95232.25;5022441;28;20181;-70
2023/05/11 08:18:55;;;;;;;7.95;7.25;;;;;;;13.16;47.38;95237.06;5032320;28;20225;-67
2023/05/11 08:21:21;;;;;;;8.57;7.78;;;;;;;13.31;47.22;95237.31;5029523;28;20251;-69
2023/05/11 08:23:46;;;;;;;8.38;7.60;;;;;;;13.21;47.53;95236.59;5025833;28;20265;-70
2023/05/11 08:26:12;;;;;;;7.45;6.80;;;;;;;13.23;47.07;95235.44;5031683;28;20220;-68
2023/05/11 08:28:37;;;;;;;8.15;7.45;;;;;;;12.93;47.56;95215.72;5033015;28;20185;-69
2023/05/11 08:31:03;;;;;;;7.60;6.90;;;;;;;13.04;47.38;95219.88;5034049;28;20225;-68
2023/05/11 08:33:28;;;;;;;6.80;6.30;;;;;;;13.39;46.59;95225.88;5026709;28;20221;-67
2023/05/11 08:35:54;;;;;;;7.43;6.72;;;;;;;13.48;46.29;95224.09;5034295;28;20277;-64
2023/05/11 08:38:19;;;;;;;6.47;5.95;;;;;;;13.51;45.93;95231.69;5029231;28;20303;-64
2023/05/11 08:40:48;;;;;;;6.30;5.80;;;;;;;13.37;45.92;95219.97;5023663;28;20313;-69
2023/05/11 08:43:15;;;;;;;6.43;5.90;;;;;;;13.44;46.25;95231.50;5024143;28;20200;-66
2023/05/11 08:45:46;;;;;;;6.00;5.50;;;;;;;13.61;45.80;95233.19;5025574;28;20229;-69
2023/05/11 08:48:14;;;;;;;6.32;5.78;;;;;;;13.76;45.66;95228.03;5034281;28;20245;-67
2023/05/11 08:50:40;;;;;;;6.35;5.80;;;;;;;13.91;45.56;95233.50;5026508;28;20233;-66
2023/05/11 08:53:06;;;;;;;6.22;5.57;;;;;;;14.05;44.79;95222.22;5023785;28;20221;-68
2023/05/11 08:55:33;;;;;;;6.82;5.78;;;;;;;14.11;45.07;95232.16;5034118;28;20296;-67
2023/05/11 08:58:02;;;;;;;5.38;4.97;;;;;;;14.30;44.48;95222.16;5022440;28;20232;-69
2023/05/11 09:00:29;;;;;;;7.50;6.82;;;;;;;13.98;45.51;95215.97;5026519;28;20229;-69
2023/05/11 09:02:56;;;;;;;5.70;5.20;;;;;;;14.12;45.05;95217.13;5029310;28;20229;-66
2023/05/11 09:05:22;;;;;;;5.80;5.20;;;;;;;14.35;44.78;95209.25;5027411;28;20236;-65
2023/05/11 09:07:51;;;;;;;6.10;5.60;;;;;;;14.50;44.46;95218.16;5024746;28;20639;-71
2023/05/11 09:10:17;;;;;;;5.20;4.57;;;;;;;14.42;44.94;95215.53;5022396;28;20186;-68
2023/05/11 09:12:45;;;;;;;6.22;5.45;;;;;;;14.36;45.37;95210.94;5023902;28;20223;-69
2023/05/11 09:15:11;;;;;;;5.82;4.72;;;;;;;14.55;45.51;95205.25;5022012;28;20271;-67
2023/05/11 09:17:37;;;;;;;5.32;4.82;;;;;;;14.63;44.70;95207.06;5022480;28;20213;-70
2023/05/11 09:20:04;;;;;;;5.10;4.50;;;;;;;14.78;44.63;95207.13;5026690;28;20232;-67
2023/05/11 09:22:34;;;;;;;4.03;3.63;;;;;;;14.80;44.62;95212.28;5018518;28;20208;-66
2023/05/11 09:25:02;;;;;;;3.80;3.38;;;;;;;14.74;44.87;95211.16;5036987;28;20224;-68
2023/05/11 09:27:28;;;;;;;4.88;4.05;;;;;;;14.66;45.21;95205.88;5025065;28;20241;-69
2023/05/11 09:29:54;;;;;;;5.80;4.10;;;;;;;14.68;45.21;95212.66;5026269;28;20213;-66
2023/05/11 09:32:19;;;;;;;3.80;3.50;;;;;;;14.75;44.79;95210.13;5041240;28;21189;-64
2023/05/11 09:34:45;;;;;;;4.45;3.83;;;;;;;14.82;44.70;95219.03;5037622;28;20190;-65
2023/05/11 09:37:18;;;;;;;4.82;4.43;;;;;;;14.52;45.54;95221.50;5001359;28;20194;-69
2023/05/11 09:39:44;;;;;;;4.35;3.95;;;;;;;14.81;45.47;95213.91;5028267;28;20214;-66
2023/05/11 09:42:13;;;;;;;8.38;4.65;;;;;;;14.77;45.45;95214.25;5029303;28;20227;-64
2023/05/11 09:44:40;;;;;;;5.85;4.40;;;;;;;14.62;45.47;95217.81;5015352;28;20222;-67
2023/05/11 09:47:11;;;;;;;5.00;4.57;;;;;;;14.61;45.43;95227.56;5030534;28;20434;-67
2023/05/11 09:49:38;;;;;;;8.20;4.90;;;;;;;14.31;45.86;95223.84;5021090;28;20196;-68
2023/05/11 09:52:04;;;;;;;6.25;5.20;;;;;;;14.46;45.83;95208.06;5031155;28;20232;-68
2023/05/11 09:54:30;;;;;;;5.47;4.97;;;;;;;14.29;46.21;95200.19;5040994;28;20222;-68
2023/05/11 09:56:59;;;;;;;6.00;5.45;;;;;;;14.53;46.10;95198.50;5023753;28;20221;-68
2023/05/11 09:59:51;;;;;;;6.35;5.75;;;;;;;14.60;45.88;95204.75;5036991;28;20686;-67
2023/05/11 10:02:23;;;;;;;6.20;5.60;;;;;;;14.94;45.52;95203.59;5022941;28;20264;-69
2023/05/11 10:04:50;;;;;;;6.05;5.45;;;;;;;15.09;44.62;95201.03;5022356;28;20276;-65
2023/05/11 10:07:22;;;;;;;5.32;4.93;;;;;;;14.99;44.74;95188.00;5028456;28;20193;-67
2023/05/11 10:09:49;;;;;;;5.57;5.07;;;;;;;14.88;45.14;95189.22;5025609;28;20213;-68
2023/05/11 10:12:15;;;;;;;5.70;5.30;;;;;;;14.74;45.59;95192.63;5029504;28;20213;-66
2023/05/11 10:14:42;;;;;;;5.47;4.97;;;;;;;14.66;45.24;95182.88;5017606;28;20326;-67
2023/05/11 10:17:10;;;;;;;5.97;4.93;;;;;;;14.73;45.55;95181.22;5027435;28;20224;-65
2023/05/11 10:19:35;;;;;;;6.63;4.85;;;;;;;15.00;44.30;95184.38;5021319;28;20188;-65
2023/05/11 10:22:02;;;;;;;5.38;4.88;;;;;;;14.95;44.28;95181.41;5030121;28;20226;-70
2023/05/11 10:24:28;;;;;;;6.93;5.03;;;;;;;14.87;44.71;95177.00;5042942;28;20360;-67
2023/05/11 10:26:56;;;;;;;6.18;5.00;;;;;;;14.77;44.80;95179.03;5028341;28;20245;-65
2023/05/11 10:29:22;;;;;;;5.90;4.82;;;;;;;14.89;44.64;95176.81;5041494;28;20283;-65
2023/05/11 10:31:50;;;;;;;5.95;4.85;;;;;;;15.18;44.20;95168.19;5030275;28;20181;-69
2023/05/11 10:34:16;;;;;;;6.47;4.28;;;;;;;15.14;43.45;95169.56;5028521;28;20223;-67
2023/05/11 10:36:45;;;;;;;5.43;4.30;;;;;;;15.33;43.42;95169.06;5026403;28;20225;-67
2023/05/11 10:39:10;;;;;;;4.72;4.22;;;;;;;15.56;42.75;95162.94;5022092;28;20286;-71
2023/05/11 10:42:06;;;;;;;4.85;4.45;;;;;;;15.63;42.11;95155.91;5026803;28;20285;-69
2023/05/11 10:44:59;;;;;;;5.28;4.10;;;;;;;15.73;42.20;95168.94;5027784;28;20233;-67
2023/05/11 10:47:44;;;;;;;4.13;3.80;;;;;;;15.59;42.28;95166.06;5021777;28;20236;-69
2023/05/11 10:50:34;;;;;;;5.75;4.03;;;;;;;15.69;42.38;95165.00;5037670;28;20246;-66
2023/05/11 10:53:35;;;;;;;4.10;3.80;;;;;;;15.78;41.93;95154.16;5023072;28;20236;-70
2023/05/11 10:56:13;;;;;;;4.68;3.30;;;;;;;15.92;41.54;95170.25;5025535;28;20259;-69
2023/05/11 10:59:20;;;;;;;4.40;3.63;;;;;;;15.39;42.80;95165.69;5036840;28;20188;-66
2023/05/11 11:01:45;;;;;;;4.60;3.50;;;;;;;15.31;42.58;95159.66;5018675;28;20245;-71
2023/05/11 11:04:12;;;;;;;6.22;3.45;;;;;;;15.37;42.82;95164.22;5022037;28;20249;-73
2023/05/11 11:06:42;;;;;;;4.20;3.50;;;;;;;15.63;42.24;95167.31;5025718;28;20220;-65
2023/05/11 11:09:14;;;;;;;4.50;3.25;;;;;;;15.62;42.04;95155.09;5037598;28;20248;-66
2023/05/11 11:11:49;;;;;;;3.55;3.00;;;;;;;15.82;41.44;95160.75;5023088;28;20233;-64
2023/05/11 11:14:17;;;;;;;6.32;4.15;;;;;;;15.87;41.88;95162.84;5024967;28;20240;-68
2023/05/11 11:17:13;;;;;;;4.03;3.30;;;;;;;15.84;42.03;95158.72;5023581;28;20185;-64
2023/05/11 11:19:38;;;;;;;3.85;3.40;;;;;;;15.99;41.63;95153.44;5021061;28;20198;-68
2023/05/11 11:22:05;;;;;;;3.22;2.92;;;;;;;15.84;41.89;95160.56;5022641;28;20245;-67
2023/05/11 11:24:33;;;;;;;4.75;3.17;;;;;;;16.09;41.45;95151.34;5025400;28;20280;-67
2023/05/11 11:26:59;;;;;;;4.45;3.63;;;;;;;16.18;41.34;95149.44;5020149;28;20348;-66
2023/05/11 11:29:24;;;;;;;3.65;3.30;;;;;;;15.85;41.82;95156.88;5018540;28;20210;-66
2023/05/11 11:31:50;;;;;;;4.55;3.20;;;;;;;15.93;42.24;95146.22;5017768;28;20186;-68